sensor_id;sensor_type;location;lat;lon;timestamp;P1;durP1;ratioP1;P2;durP2;ratioP2
10295;SDS011;5193;51.032;6.356;2023-07-13T00:01:27;4.20;;;1.07;;
10295;SDS011;5193;51.032;6.356;2023-07-13T00:03:54;5.67;;;1.17;;
10295;SDS011;5193;51.032;6.356;2023-07-13T00:06:20;7.03;;;1.57;;
10295;SDS011;5193;51.032;6.356;2023-07-13T00:08:46;2.93;;;1.27;;
10295;SDS011;5193;51.032;6.356;2023-07-13T00:11:12;5.20;;;1.00;;
10295;SDS011;5193;51.032;6.356;2023-07-13T00:13:39;3.43;;;1.07;;
10295;SDS011;5193;51.032;6.356;2023-07-13T00:16:06;4.73;;;1.00;;
10295;SDS011;5193;51.032;6.356;2023-07-13T00:18:32;5.20;;;1.47;;
10295;SDS011;5193;51.032;6.356;2023-07-13T00:20:58;3.57;;;1.20;;
10295;SDS011;5193;51.032;6.356;2023-07-13T00:23:37;4.00;;;1.07;;
10295;SDS011;5193;51.032;6.356;2023-07-13T00:26:04;4.53;;;1.10;;
10295;SDS011;5193;51.032;6.356;2023-07-13T00:28:32;3.77;;;1.27;;
10295;SDS011;5193;51.032;6.356;2023-07-13T00:30:59;6.40;;;1.03;;
10295;SDS011;5193;51.032;6.356;2023-07-13T00:33:25;4.53;;;1.00;;
10295;SDS011;5193;51.032;6.356;2023-07-13T00:35:51;3.30;;;1.10;;
10295;SDS011;5193;51.032;6.356;2023-07-13T00:38:18;5.70;;;0.90;;
10295;SDS011;5193;51.032;6.356;2023-07-13T00:40:44;3.47;;;1.00;;
10295;SDS011;5193;51.032;6.356;2023-07-13T00:43:14;5.00;;;1.10;;
10295;SDS011;5193;51.032;6.356;2023-07-13T00:48:14;6.03;;;1.23;;
10295;SDS011;5193;51.032;6.356;2023-07-13T00:50:44;3.90;;;1.07;;
10295;SDS011;5193;51.032;6.356;2023-07-13T00:53:11;4.37;;;1.27;;
10295;SDS011;5193;51.032;6.356;2023-07-13T00:55:38;6.13;;;1.30;;
10295;SDS011;5193;51.032;6.356;2023-07-13T00:58:04;3.73;;;0.93;;
10295;SDS011;5193;51.032;6.356;2023-07-13T01:00:31;2.63;;;1.00;;
10295;SDS011;5193;51.032;6.356;2023-07-13T01:02:59;5.33;;;1.17;;
10295;SDS011;5193;51.032;6.356;2023-07-13T01:05:29;5.07;;;1.10;;
10295;SDS011;5193;51.032;6.356;2023-07-13T01:07:56;11.20;;;1.90;;
10295;SDS011;5193;51.032;6.356;2023-07-13T01:10:23;4.43;;;1.00;;
10295;SDS011;5193;51.032;6.356;2023-07-13T01:12:50;3.67;;;1.13;;
10295;SDS011;5193;51.032;6.356;2023-07-13T01:18:13;4.57;;;1.27;;
10295;SDS011;5193;51.032;6.356;2023-07-13T01:23:25;5.13;;;1.00;;
10295;SDS011;5193;51.032;6.356;2023-07-13T01:25:52;4.23;;;1.40;;
10295;SDS011;5193;51.032;6.356;2023-07-13T01:28:20;5.17;;;1.07;;
10295;SDS011;5193;51.032;6.356;2023-07-13T01:30:46;8.90;;;1.70;;
10295;SDS011;5193;51.032;6.356;2023-07-13T01:33:13;4.10;;;1.33;;
10295;SDS011;5193;51.032;6.356;2023-07-13T01:35:40;2.97;;;1.00;;
10295;SDS011;5193;51.032;6.356;2023-07-13T01:38:06;3.93;;;1.50;;
10295;SDS011;5193;51.032;6.356;2023-07-13T01:40:33;3.80;;;1.20;;
10295;SDS011;5193;51.032;6.356;2023-07-13T01:43:00;6.87;;;1.23;;
10295;SDS011;5193;51.032;6.356;2023-07-13T01:45:26;4.90;;;1.10;;
10295;SDS011;5193;51.032;6.356;2023-07-13T01:47:52;6.17;;;1.10;;
10295;SDS011;5193;51.032;6.356;2023-07-13T01:50:18;6.20;;;1.30;;
10295;SDS011;5193;51.032;6.356;2023-07-13T01:52:43;2.43;;;1.10;;
10295;SDS011;5193;51.032;6.356;2023-07-13T01:55:09;3.43;;;1.20;;
10295;SDS011;5193;51.032;6.356;2023-07-13T01:57:34;3.33;;;1.20;;
10295;SDS011;5193;51.032;6.356;2023-07-13T02:00:02;4.87;;;1.10;;
10295;SDS011;5193;51.032;6.356;2023-07-13T02:02:29;3.87;;;1.13;;
10295;SDS011;5193;51.032;6.356;2023-07-13T02:04:55;3.80;;;1.03;;
10295;SDS011;5193;51.032;6.356;2023-07-13T02:07:21;6.93;;;1.77;;
10295;SDS011;5193;51.032;6.356;2023-07-13T02:09:46;9.33;;;1.20;;
10295;SDS011;5193;51.032;6.356;2023-07-13T02:12:12;4.37;;;1.23;;
10295;SDS011;5193;51.032;6.356;2023-07-13T02:14:38;4.77;;;1.57;;
10295;SDS011;5193;51.032;6.356;2023-07-13T02:17:04;7.30;;;1.10;;
10295;SDS011;5193;51.032;6.356;2023-07-13T02:19:30;3.27;;;1.20;;
10295;SDS011;5193;51.032;6.356;2023-07-13T02:21:56;3.70;;;1.13;;
10295;SDS011;5193;51.032;6.356;2023-07-13T02:24:21;2.83;;;1.07;;
10295;SDS011;5193;51.032;6.356;2023-07-13T02:26:47;2.97;;;1.30;;
10295;SDS011;5193;51.032;6.356;2023-07-13T02:29:13;3.60;;;1.30;;
10295;SDS011;5193;51.032;6.356;2023-07-13T02:31:38;6.37;;;1.33;;
10295;SDS011;5193;51.032;6.356;2023-07-13T02:34:04;5.60;;;1.47;;
10295;SDS011;5193;51.032;6.356;2023-07-13T02:36:30;3.60;;;1.40;;
10295;SDS011;5193;51.032;6.356;2023-07-13T02:38:57;4.70;;;1.30;;
10295;SDS011;5193;51.032;6.356;2023-07-13T02:41:26;4.90;;;1.17;;
10295;SDS011;5193;51.032;6.356;2023-07-13T02:43:51;4.53;;;1.30;;
10295;SDS011;5193;51.032;6.356;2023-07-13T02:46:17;5.50;;;1.43;;
10295;SDS011;5193;51.032;6.356;2023-07-13T02:48:44;3.47;;;1.13;;
10295;SDS011;5193;51.032;6.356;2023-07-13T02:51:10;4.90;;;1.30;;
10295;SDS011;5193;51.032;6.356;2023-07-13T02:53:36;4.97;;;1.57;;
10295;SDS011;5193;51.032;6.356;2023-07-13T02:56:02;3.33;;;1.03;;
10295;SDS011;5193;51.032;6.356;2023-07-13T02:58:29;3.87;;;1.50;;
10295;SDS011;5193;51.032;6.356;2023-07-13T03:00:55;3.00;;;1.00;;
10295;SDS011;5193;51.032;6.356;2023-07-13T03:03:22;5.00;;;1.67;;
10295;SDS011;5193;51.032;6.356;2023-07-13T03:05:48;5.70;;;1.20;;
10295;SDS011;5193;51.032;6.356;2023-07-13T03:08:25;4.43;;;1.23;;
10295;SDS011;5193;51.032;6.356;2023-07-13T03:11:00;5.47;;;1.40;;
10295;SDS011;5193;51.032;6.356;2023-07-13T03:13:33;2.30;;;1.00;;
10295;SDS011;5193;51.032;6.356;2023-07-13T03:15:59;2.67;;;1.00;;
10295;SDS011;5193;51.032;6.356;2023-07-13T03:18:26;3.30;;;1.30;;
10295;SDS011;5193;51.032;6.356;2023-07-13T03:20:52;3.37;;;1.30;;
10295;SDS011;5193;51.032;6.356;2023-07-13T03:23:18;5.20;;;1.20;;
10295;SDS011;5193;51.032;6.356;2023-07-13T03:25:45;5.83;;;1.30;;
10295;SDS011;5193;51.032;6.356;2023-07-13T03:28:11;9.40;;;1.97;;
10295;SDS011;5193;51.032;6.356;2023-07-13T03:30:38;3.63;;;1.07;;
10295;SDS011;5193;51.032;6.356;2023-07-13T03:33:04;4.13;;;1.30;;
10295;SDS011;5193;51.032;6.356;2023-07-13T03:35:30;3.53;;;1.30;;
10295;SDS011;5193;51.032;6.356;2023-07-13T03:37:57;4.87;;;1.37;;
10295;SDS011;5193;51.032;6.356;2023-07-13T03:40:24;4.10;;;1.40;;
10295;SDS011;5193;51.032;6.356;2023-07-13T03:42:51;2.97;;;1.33;;
10295;SDS011;5193;51.032;6.356;2023-07-13T03:45:16;4.80;;;1.27;;
10295;SDS011;5193;51.032;6.356;2023-07-13T03:47:42;2.70;;;1.13;;
10295;SDS011;5193;51.032;6.356;2023-07-13T03:50:08;8.60;;;1.50;;
10295;SDS011;5193;51.032;6.356;2023-07-13T03:52:34;3.57;;;1.10;;
10295;SDS011;5193;51.032;6.356;2023-07-13T03:54:59;4.33;;;1.50;;
10295;SDS011;5193;51.032;6.356;2023-07-13T03:57:25;3.77;;;1.23;;
10295;SDS011;5193;51.032;6.356;2023-07-13T03:59:51;6.33;;;1.70;;
10295;SDS011;5193;51.032;6.356;2023-07-13T04:02:16;4.83;;;1.40;;
10295;SDS011;5193;51.032;6.356;2023-07-13T04:04:42;3.97;;;1.20;;
10295;SDS011;5193;51.032;6.356;2023-07-13T04:07:08;2.27;;;0.93;;
10295;SDS011;5193;51.032;6.356;2023-07-13T04:09:34;4.30;;;1.40;;
10295;SDS011;5193;51.032;6.356;2023-07-13T04:12:00;4.53;;;1.53;;
10295;SDS011;5193;51.032;6.356;2023-07-13T04:14:26;4.87;;;1.83;;
10295;SDS011;5193;51.032;6.356;2023-07-13T04:16:51;2.60;;;1.20;;
10295;SDS011;5193;51.032;6.356;2023-07-13T04:19:19;4.63;;;1.47;;
10295;SDS011;5193;51.032;6.356;2023-07-13T04:21:45;3.80;;;1.47;;
10295;SDS011;5193;51.032;6.356;2023-07-13T04:24:11;4.50;;;1.70;;
10295;SDS011;5193;51.032;6.356;2023-07-13T04:26:37;4.57;;;1.57;;
10295;SDS011;5193;51.032;6.356;2023-07-13T04:29:03;3.07;;;1.30;;
10295;SDS011;5193;51.032;6.356;2023-07-13T04:31:30;4.70;;;1.03;;
10295;SDS011;5193;51.032;6.356;2023-07-13T04:33:56;6.77;;;1.60;;
10295;SDS011;5193;51.032;6.356;2023-07-13T04:36:22;4.20;;;1.53;;
10295;SDS011;5193;51.032;6.356;2023-07-13T04:38:47;6.40;;;1.43;;
10295;SDS011;5193;51.032;6.356;2023-07-13T04:41:14;5.47;;;1.67;;
10295;SDS011;5193;51.032;6.356;2023-07-13T04:43:40;8.63;;;1.50;;
10295;SDS011;5193;51.032;6.356;2023-07-13T04:46:07;7.43;;;1.70;;
10295;SDS011;5193;51.032;6.356;2023-07-13T04:48:37;2.97;;;1.33;;
10295;SDS011;5193;51.032;6.356;2023-07-13T04:51:03;6.23;;;1.30;;
10295;SDS011;5193;51.032;6.356;2023-07-13T04:53:29;4.73;;;1.60;;
10295;SDS011;5193;51.032;6.356;2023-07-13T04:55:55;5.80;;;1.57;;
10295;SDS011;5193;51.032;6.356;2023-07-13T04:58:22;5.73;;;1.70;;
10295;SDS011;5193;51.032;6.356;2023-07-13T05:00:48;5.40;;;1.57;;
10295;SDS011;5193;51.032;6.356;2023-07-13T05:03:14;6.97;;;1.70;;
10295;SDS011;5193;51.032;6.356;2023-07-13T05:05:40;6.80;;;1.40;;
10295;SDS011;5193;51.032;6.356;2023-07-13T05:08:05;6.90;;;1.60;;
10295;SDS011;5193;51.032;6.356;2023-07-13T05:10:32;5.87;;;1.57;;
10295;SDS011;5193;51.032;6.356;2023-07-13T05:12:58;5.80;;;2.13;;
10295;SDS011;5193;51.032;6.356;2023-07-13T05:15:23;6.00;;;1.67;;
10295;SDS011;5193;51.032;6.356;2023-07-13T05:17:50;7.67;;;2.13;;
10295;SDS011;5193;51.032;6.356;2023-07-13T05:20:16;6.77;;;1.90;;
10295;SDS011;5193;51.032;6.356;2023-07-13T05:22:43;8.23;;;1.60;;
10295;SDS011;5193;51.032;6.356;2023-07-13T05:25:11;5.30;;;1.40;;
10295;SDS011;5193;51.032;6.356;2023-07-13T05:27:37;4.17;;;1.80;;
10295;SDS011;5193;51.032;6.356;2023-07-13T05:30:03;4.73;;;1.73;;
10295;SDS011;5193;51.032;6.356;2023-07-13T05:32:29;6.30;;;2.07;;
10295;SDS011;5193;51.032;6.356;2023-07-13T05:34:55;6.23;;;1.53;;
10295;SDS011;5193;51.032;6.356;2023-07-13T05:37:20;12.77;;;2.20;;
10295;SDS011;5193;51.032;6.356;2023-07-13T05:39:46;12.00;;;2.10;;
10295;SDS011;5193;51.032;6.356;2023-07-13T05:42:12;5.97;;;1.90;;
10295;SDS011;5193;51.032;6.356;2023-07-13T05:44:37;6.73;;;1.83;;
10295;SDS011;5193;51.032;6.356;2023-07-13T05:47:03;8.80;;;2.33;;
10295;SDS011;5193;51.032;6.356;2023-07-13T05:49:29;9.77;;;2.13;;
10295;SDS011;5193;51.032;6.356;2023-07-13T05:51:55;5.70;;;1.97;;
10295;SDS011;5193;51.032;6.356;2023-07-13T05:54:21;8.37;;;2.10;;
10295;SDS011;5193;51.032;6.356;2023-07-13T05:56:47;9.10;;;2.10;;
10295;SDS011;5193;51.032;6.356;2023-07-13T05:59:12;4.73;;;1.77;;
10295;SDS011;5193;51.032;6.356;2023-07-13T06:01:38;6.87;;;2.10;;
10295;SDS011;5193;51.032;6.356;2023-07-13T06:04:04;9.00;;;2.10;;
10295;SDS011;5193;51.032;6.356;2023-07-13T06:06:29;7.37;;;2.27;;
10295;SDS011;5193;51.032;6.356;2023-07-13T06:08:55;6.67;;;2.10;;
10295;SDS011;5193;51.032;6.356;2023-07-13T06:11:21;5.53;;;2.27;;
10295;SDS011;5193;51.032;6.356;2023-07-13T06:13:49;10.80;;;2.40;;
10295;SDS011;5193;51.032;6.356;2023-07-13T06:16:15;5.97;;;2.10;;
10295;SDS011;5193;51.032;6.356;2023-07-13T06:18:41;8.20;;;2.43;;
10295;SDS011;5193;51.032;6.356;2023-07-13T06:21:08;8.23;;;2.03;;
10295;SDS011;5193;51.032;6.356;2023-07-13T06:23:38;10.90;;;2.73;;
10295;SDS011;5193;51.032;6.356;2023-07-13T06:26:04;14.53;;;2.30;;
10295;SDS011;5193;51.032;6.356;2023-07-13T06:28:30;5.67;;;2.50;;
10295;SDS011;5193;51.032;6.356;2023-07-13T06:30:56;8.57;;;2.30;;
10295;SDS011;5193;51.032;6.356;2023-07-13T06:33:25;8.00;;;2.73;;
10295;SDS011;5193;51.032;6.356;2023-07-13T06:35:51;6.40;;;1.97;;
10295;SDS011;5193;51.032;6.356;2023-07-13T06:38:18;8.47;;;2.43;;
10295;SDS011;5193;51.032;6.356;2023-07-13T06:40:43;8.20;;;2.57;;
10295;SDS011;5193;51.032;6.356;2023-07-13T06:43:09;7.13;;;2.30;;
10295;SDS011;5193;51.032;6.356;2023-07-13T06:45:41;12.10;;;2.47;;
10295;SDS011;5193;51.032;6.356;2023-07-13T06:48:11;9.80;;;2.73;;
10295;SDS011;5193;51.032;6.356;2023-07-13T06:50:36;7.60;;;1.97;;
10295;SDS011;5193;51.032;6.356;2023-07-13T06:53:02;4.73;;;1.90;;
10295;SDS011;5193;51.032;6.356;2023-07-13T06:55:27;8.37;;;2.50;;
10295;SDS011;5193;51.032;6.356;2023-07-13T06:57:53;6.40;;;2.30;;
10295;SDS011;5193;51.032;6.356;2023-07-13T07:00:19;11.67;;;2.50;;
10295;SDS011;5193;51.032;6.356;2023-07-13T07:02:44;10.00;;;2.53;;
10295;SDS011;5193;51.032;6.356;2023-07-13T07:05:10;5.83;;;2.33;;
10295;SDS011;5193;51.032;6.356;2023-07-13T07:07:35;10.37;;;2.43;;
10295;SDS011;5193;51.032;6.356;2023-07-13T07:10:01;10.80;;;3.20;;
10295;SDS011;5193;51.032;6.356;2023-07-13T07:12:28;12.37;;;2.63;;
10295;SDS011;5193;51.032;6.356;2023-07-13T07:14:54;7.90;;;2.13;;
10295;SDS011;5193;51.032;6.356;2023-07-13T07:17:19;9.03;;;2.03;;
10295;SDS011;5193;51.032;6.356;2023-07-13T07:19:45;10.30;;;2.30;;
10295;SDS011;5193;51.032;6.356;2023-07-13T07:22:11;10.13;;;2.53;;
10295;SDS011;5193;51.032;6.356;2023-07-13T07:24:36;7.10;;;2.37;;
10295;SDS011;5193;51.032;6.356;2023-07-13T07:27:02;15.30;;;2.50;;
10295;SDS011;5193;51.032;6.356;2023-07-13T07:29:28;9.67;;;2.50;;
10295;SDS011;5193;51.032;6.356;2023-07-13T07:31:53;9.70;;;2.43;;
10295;SDS011;5193;51.032;6.356;2023-07-13T07:34:19;7.67;;;2.73;;
10295;SDS011;5193;51.032;6.356;2023-07-13T07:36:44;11.23;;;3.07;;
10295;SDS011;5193;51.032;6.356;2023-07-13T07:39:10;7.73;;;2.50;;
10295;SDS011;5193;51.032;6.356;2023-07-13T07:41:36;10.47;;;2.60;;
10295;SDS011;5193;51.032;6.356;2023-07-13T07:44:02;9.50;;;2.97;;
10295;SDS011;5193;51.032;6.356;2023-07-13T07:46:28;13.47;;;3.27;;
10295;SDS011;5193;51.032;6.356;2023-07-13T07:48:55;9.40;;;2.67;;
10295;SDS011;5193;51.032;6.356;2023-07-13T07:51:21;8.33;;;2.87;;
10295;SDS011;5193;51.032;6.356;2023-07-13T07:53:47;5.93;;;2.60;;
10295;SDS011;5193;51.032;6.356;2023-07-13T07:56:13;9.13;;;2.40;;
10295;SDS011;5193;51.032;6.356;2023-07-13T07:58:38;9.67;;;2.77;;
10295;SDS011;5193;51.032;6.356;2023-07-13T08:01:04;10.53;;;2.50;;
10295;SDS011;5193;51.032;6.356;2023-07-13T08:03:31;14.37;;;3.17;;
10295;SDS011;5193;51.032;6.356;2023-07-13T08:05:56;10.60;;;2.67;;
10295;SDS011;5193;51.032;6.356;2023-07-13T08:08:22;8.37;;;2.20;;
10295;SDS011;5193;51.032;6.356;2023-07-13T08:10:48;8.87;;;2.40;;
10295;SDS011;5193;51.032;6.356;2023-07-13T08:13:13;7.83;;;2.33;;
10295;SDS011;5193;51.032;6.356;2023-07-13T08:15:39;8.40;;;2.20;;
10295;SDS011;5193;51.032;6.356;2023-07-13T08:18:05;7.70;;;2.50;;
10295;SDS011;5193;51.032;6.356;2023-07-13T08:20:31;7.20;;;2.13;;
10295;SDS011;5193;51.032;6.356;2023-07-13T08:22:56;7.20;;;2.07;;
10295;SDS011;5193;51.032;6.356;2023-07-13T08:25:22;6.97;;;1.87;;
10295;SDS011;5193;51.032;6.356;2023-07-13T08:27:48;7.80;;;2.10;;
10295;SDS011;5193;51.032;6.356;2023-07-13T08:30:13;5.73;;;2.27;;
10295;SDS011;5193;51.032;6.356;2023-07-13T08:32:39;7.97;;;2.13;;
10295;SDS011;5193;51.032;6.356;2023-07-13T08:35:05;4.20;;;1.87;;
10295;SDS011;5193;51.032;6.356;2023-07-13T08:37:31;4.37;;;2.00;;
10295;SDS011;5193;51.032;6.356;2023-07-13T08:39:56;8.43;;;2.07;;
10295;SDS011;5193;51.032;6.356;2023-07-13T08:42:32;6.57;;;2.40;;
10295;SDS011;5193;51.032;6.356;2023-07-13T08:47:44;11.27;;;2.50;;
10295;SDS011;5193;51.032;6.356;2023-07-13T08:50:15;6.20;;;2.20;;
10295;SDS011;5193;51.032;6.356;2023-07-13T08:52:44;4.00;;;1.47;;
10295;SDS011;5193;51.032;6.356;2023-07-13T08:55:19;5.83;;;2.00;;
10295;SDS011;5193;51.032;6.356;2023-07-13T08:57:53;7.43;;;2.00;;
10295;SDS011;5193;51.032;6.356;2023-07-13T09:03:29;5.90;;;1.90;;
10295;SDS011;5193;51.032;6.356;2023-07-13T09:05:59;6.40;;;2.10;;
10295;SDS011;5193;51.032;6.356;2023-07-13T09:08:45;8.50;;;2.47;;
10295;SDS011;5193;51.032;6.356;2023-07-13T09:14:18;7.57;;;2.37;;
10295;SDS011;5193;51.032;6.356;2023-07-13T09:16:56;5.23;;;1.77;;
10295;SDS011;5193;51.032;6.356;2023-07-13T09:19:24;6.80;;;1.87;;
10295;SDS011;5193;51.032;6.356;2023-07-13T09:21:55;6.27;;;1.70;;
10295;SDS011;5193;51.032;6.356;2023-07-13T09:27:01;8.50;;;2.20;;
10295;SDS011;5193;51.032;6.356;2023-07-13T09:29:37;6.70;;;2.03;;
10295;SDS011;5193;51.032;6.356;2023-07-13T09:32:09;7.93;;;2.13;;
10295;SDS011;5193;51.032;6.356;2023-07-13T09:34:38;9.23;;;2.00;;
10295;SDS011;5193;51.032;6.356;2023-07-13T09:37:03;9.13;;;2.33;;
10295;SDS011;5193;51.032;6.356;2023-07-13T09:39:31;5.63;;;1.67;;
10295;SDS011;5193;51.032;6.356;2023-07-13T09:44:50;6.93;;;2.00;;
10295;SDS011;5193;51.032;6.356;2023-07-13T09:47:21;6.70;;;2.00;;
10295;SDS011;5193;51.032;6.356;2023-07-13T09:49:56;10.07;;;1.93;;
10295;SDS011;5193;51.032;6.356;2023-07-13T09:52:23;7.13;;;2.40;;
10295;SDS011;5193;51.032;6.356;2023-07-13T09:54:50;6.57;;;1.77;;
10295;SDS011;5193;51.032;6.356;2023-07-13T09:57:17;5.77;;;1.83;;
10295;SDS011;5193;51.032;6.356;2023-07-13T09:59:47;5.10;;;1.80;;
10295;SDS011;5193;51.032;6.356;2023-07-13T10:05:00;7.87;;;2.30;;
10295;SDS011;5193;51.032;6.356;2023-07-13T10:07:31;7.40;;;2.30;;
10295;SDS011;5193;51.032;6.356;2023-07-13T10:10:02;8.70;;;1.80;;
10295;SDS011;5193;51.032;6.356;2023-07-13T10:12:29;6.50;;;1.97;;
10295;SDS011;5193;51.032;6.356;2023-07-13T10:15:00;9.03;;;1.83;;
10295;SDS011;5193;51.032;6.356;2023-07-13T10:17:29;8.13;;;2.23;;
10295;SDS011;5193;51.032;6.356;2023-07-13T10:20:01;9.23;;;2.03;;
10295;SDS011;5193;51.032;6.356;2023-07-13T10:25:16;4.33;;;1.77;;
10295;SDS011;5193;51.032;6.356;2023-07-13T10:27:47;3.53;;;1.63;;
10295;SDS011;5193;51.032;6.356;2023-07-13T10:30:24;10.40;;;1.40;;
10295;SDS011;5193;51.032;6.356;2023-07-13T10:32:53;4.53;;;1.60;;
10295;SDS011;5193;51.032;6.356;2023-07-13T10:35:19;10.80;;;3.17;;
10295;SDS011;5193;51.032;6.356;2023-07-13T10:38:07;3.70;;;1.50;;
10295;SDS011;5193;51.032;6.356;2023-07-13T10:40:37;5.03;;;1.90;;
10295;SDS011;5193;51.032;6.356;2023-07-13T10:43:14;4.53;;;1.83;;
10295;SDS011;5193;51.032;6.356;2023-07-13T10:45:45;5.57;;;1.47;;
10295;SDS011;5193;51.032;6.356;2023-07-13T10:48:14;6.17;;;1.63;;
10295;SDS011;5193;51.032;6.356;2023-07-13T10:50:41;6.40;;;1.63;;
10295;SDS011;5193;51.032;6.356;2023-07-13T10:53:28;5.13;;;1.60;;
10295;SDS011;5193;51.032;6.356;2023-07-13T10:59:10;3.07;;;1.50;;
10295;SDS011;5193;51.032;6.356;2023-07-13T11:01:46;5.13;;;1.40;;
10295;SDS011;5193;51.032;6.356;2023-07-13T11:04:47;5.10;;;1.33;;
10295;SDS011;5193;51.032;6.356;2023-07-13T11:07:19;3.90;;;1.90;;
10295;SDS011;5193;51.032;6.356;2023-07-13T11:09:53;7.30;;;1.60;;
10295;SDS011;5193;51.032;6.356;2023-07-13T11:22:47;4.60;;;1.60;;
10295;SDS011;5193;51.032;6.356;2023-07-13T11:30:39;4.20;;;1.30;;
10295;SDS011;5193;51.032;6.356;2023-07-13T11:38:38;6.03;;;1.80;;
10295;SDS011;5193;51.032;6.356;2023-07-13T11:41:06;4.13;;;1.30;;
10295;SDS011;5193;51.032;6.356;2023-07-13T11:43:41;3.60;;;1.33;;
10295;SDS011;5193;51.032;6.356;2023-07-13T11:46:14;4.97;;;1.40;;
10295;SDS011;5193;51.032;6.356;2023-07-13T11:48:40;3.47;;;1.50;;
10295;SDS011;5193;51.032;6.356;2023-07-13T11:51:06;3.87;;;1.30;;
10295;SDS011;5193;51.032;6.356;2023-07-13T11:53:44;5.77;;;2.10;;
10295;SDS011;5193;51.032;6.356;2023-07-13T11:56:10;5.03;;;2.13;;
10295;SDS011;5193;51.032;6.356;2023-07-13T11:58:37;6.30;;;1.70;;
10295;SDS011;5193;51.032;6.356;2023-07-13T12:01:03;3.63;;;1.37;;
10295;SDS011;5193;51.032;6.356;2023-07-13T12:03:30;2.60;;;1.00;;
10295;SDS011;5193;51.032;6.356;2023-07-13T12:06:06;4.47;;;1.60;;
10295;SDS011;5193;51.032;6.356;2023-07-13T12:08:46;8.00;;;1.40;;
10295;SDS011;5193;51.032;6.356;2023-07-13T12:11:15;4.03;;;1.20;;
10295;SDS011;5193;51.032;6.356;2023-07-13T12:13:43;4.90;;;1.50;;
10295;SDS011;5193;51.032;6.356;2023-07-13T12:16:11;2.27;;;1.23;;
10295;SDS011;5193;51.032;6.356;2023-07-13T12:18:40;2.57;;;1.10;;
10295;SDS011;5193;51.032;6.356;2023-07-13T12:21:13;5.13;;;1.20;;
10295;SDS011;5193;51.032;6.356;2023-07-13T12:23:43;3.07;;;1.30;;
10295;SDS011;5193;51.032;6.356;2023-07-13T12:26:11;3.43;;;1.27;;
10295;SDS011;5193;51.032;6.356;2023-07-13T12:28:39;6.53;;;1.13;;
10295;SDS011;5193;51.032;6.356;2023-07-13T12:34:23;3.87;;;1.57;;
10295;SDS011;5193;51.032;6.356;2023-07-13T12:36:58;4.57;;;1.40;;
10295;SDS011;5193;51.032;6.356;2023-07-13T12:45:00;3.73;;;1.23;;
10295;SDS011;5193;51.032;6.356;2023-07-13T12:47:29;2.57;;;1.40;;
10295;SDS011;5193;51.032;6.356;2023-07-13T12:49:57;3.63;;;1.30;;
10295;SDS011;5193;51.032;6.356;2023-07-13T12:52:28;4.00;;;1.47;;
10295;SDS011;5193;51.032;6.356;2023-07-13T12:54:57;3.13;;;1.40;;
10295;SDS011;5193;51.032;6.356;2023-07-13T12:57:30;3.60;;;1.50;;
10295;SDS011;5193;51.032;6.356;2023-07-13T12:59:56;3.17;;;1.00;;
10295;SDS011;5193;51.032;6.356;2023-07-13T13:02:29;4.53;;;1.27;;
10295;SDS011;5193;51.032;6.356;2023-07-13T13:04:57;4.90;;;1.08;;
10295;SDS011;5193;51.032;6.356;2023-07-13T13:07:23;2.42;;;1.00;;
10295;SDS011;5193;51.032;6.356;2023-07-13T13:09:50;3.38;;;1.10;;
10295;SDS011;5193;51.032;6.356;2023-07-13T13:12:16;3.55;;;1.15;;
10295;SDS011;5193;51.032;6.356;2023-07-13T13:14:42;5.67;;;1.57;;
10295;SDS011;5193;51.032;6.356;2023-07-13T13:17:16;5.00;;;1.35;;
10295;SDS011;5193;51.032;6.356;2023-07-13T13:19:52;4.90;;;1.52;;
10295;SDS011;5193;51.032;6.356;2023-07-13T13:22:19;3.30;;;1.35;;
10295;SDS011;5193;51.032;6.356;2023-07-13T13:24:45;1.85;;;1.10;;
10295;SDS011;5193;51.032;6.356;2023-07-13T13:27:15;3.25;;;1.05;;
10295;SDS011;5193;51.032;6.356;2023-07-13T13:29:43;3.65;;;1.35;;
10295;SDS011;5193;51.032;6.356;2023-07-13T13:32:11;3.28;;;1.40;;
10295;SDS011;5193;51.032;6.356;2023-07-13T13:34:38;6.68;;;1.33;;
10295;SDS011;5193;51.032;6.356;2023-07-13T13:37:04;3.75;;;1.30;;
10295;SDS011;5193;51.032;6.356;2023-07-13T13:39:43;2.90;;;1.30;;
10295;SDS011;5193;51.032;6.356;2023-07-13T13:42:09;2.97;;;1.20;;
10295;SDS011;5193;51.032;6.356;2023-07-13T13:44:35;2.97;;;1.33;;
10295;SDS011;5193;51.032;6.356;2023-07-13T13:47:01;5.28;;;1.30;;
10295;SDS011;5193;51.032;6.356;2023-07-13T13:49:27;4.47;;;1.20;;
10295;SDS011;5193;51.032;6.356;2023-07-13T13:51:55;3.67;;;1.17;;
10295;SDS011;5193;51.032;6.356;2023-07-13T13:54:22;2.78;;;1.42;;
10295;SDS011;5193;51.032;6.356;2023-07-13T13:56:49;4.53;;;1.50;;
10295;SDS011;5193;51.032;6.356;2023-07-13T13:59:16;2.78;;;1.30;;
10295;SDS011;5193;51.032;6.356;2023-07-13T14:01:43;4.05;;;1.20;;
10295;SDS011;5193;51.032;6.356;2023-07-13T14:04:14;4.90;;;1.60;;
10295;SDS011;5193;51.032;6.356;2023-07-13T14:06:42;3.97;;;1.33;;
10295;SDS011;5193;51.032;6.356;2023-07-13T14:09:09;2.55;;;1.23;;
10295;SDS011;5193;51.032;6.356;2023-07-13T14:11:37;3.22;;;1.40;;
10295;SDS011;5193;51.032;6.356;2023-07-13T14:14:04;4.43;;;1.45;;
10295;SDS011;5193;51.032;6.356;2023-07-13T14:16:30;3.03;;;1.02;;
10295;SDS011;5193;51.032;6.356;2023-07-13T14:18:58;2.65;;;1.13;;
10295;SDS011;5193;51.032;6.356;2023-07-13T14:21:25;2.83;;;1.50;;
10295;SDS011;5193;51.032;6.356;2023-07-13T14:23:53;6.35;;;1.58;;
10295;SDS011;5193;51.032;6.356;2023-07-13T14:26:19;2.72;;;1.20;;
10295;SDS011;5193;51.032;6.356;2023-07-13T14:28:49;2.03;;;1.08;;
10295;SDS011;5193;51.032;6.356;2023-07-13T14:31:16;2.47;;;1.25;;
10295;SDS011;5193;51.032;6.356;2023-07-13T14:33:43;2.40;;;1.23;;
10295;SDS011;5193;51.032;6.356;2023-07-13T14:36:27;2.30;;;1.10;;
10295;SDS011;5193;51.032;6.356;2023-07-13T14:38:54;1.60;;;1.13;;
10295;SDS011;5193;51.032;6.356;2023-07-13T14:41:20;4.32;;;1.13;;
10295;SDS011;5193;51.032;6.356;2023-07-13T14:43:46;4.57;;;1.13;;
10295;SDS011;5193;51.032;6.356;2023-07-13T14:46:21;4.93;;;1.00;;
10295;SDS011;5193;51.032;6.356;2023-07-13T14:49:01;5.30;;;1.10;;
10295;SDS011;5193;51.032;6.356;2023-07-13T14:51:45;8.40;;;1.48;;
10295;SDS011;5193;51.032;6.356;2023-07-13T14:54:11;6.33;;;1.30;;
10295;SDS011;5193;51.032;6.356;2023-07-13T14:56:37;2.73;;;1.30;;
10295;SDS011;5193;51.032;6.356;2023-07-13T14:59:02;3.67;;;1.10;;
10295;SDS011;5193;51.032;6.356;2023-07-13T15:01:30;6.27;;;1.30;;
10295;SDS011;5193;51.032;6.356;2023-07-13T15:03:56;6.10;;;1.53;;
10295;SDS011;5193;51.032;6.356;2023-07-13T15:06:23;2.80;;;1.63;;
10295;SDS011;5193;51.032;6.356;2023-07-13T15:08:48;8.03;;;1.83;;
10295;SDS011;5193;51.032;6.356;2023-07-13T15:11:15;3.20;;;1.50;;
10295;SDS011;5193;51.032;6.356;2023-07-13T15:13:41;4.73;;;1.50;;
10295;SDS011;5193;51.032;6.356;2023-07-13T15:16:16;3.97;;;1.20;;
10295;SDS011;5193;51.032;6.356;2023-07-13T15:18:45;3.17;;;1.20;;
10295;SDS011;5193;51.032;6.356;2023-07-13T15:21:13;2.00;;;1.30;;
10295;SDS011;5193;51.032;6.356;2023-07-13T15:23:44;3.67;;;1.20;;
10295;SDS011;5193;51.032;6.356;2023-07-13T15:26:13;3.47;;;1.10;;
10295;SDS011;5193;51.032;6.356;2023-07-13T15:28:41;5.97;;;1.13;;
10295;SDS011;5193;51.032;6.356;2023-07-13T15:33:45;3.00;;;1.10;;
10295;SDS011;5193;51.032;6.356;2023-07-13T15:36:14;4.40;;;1.30;;
10295;SDS011;5193;51.032;6.356;2023-07-13T15:38:44;3.63;;;1.40;;
10295;SDS011;5193;51.032;6.356;2023-07-13T15:41:16;3.43;;;1.43;;
10295;SDS011;5193;51.032;6.356;2023-07-13T15:43:43;2.83;;;1.47;;
10295;SDS011;5193;51.032;6.356;2023-07-13T15:46:10;2.40;;;1.20;;
10295;SDS011;5193;51.032;6.356;2023-07-13T15:48:35;5.13;;;1.20;;
10295;SDS011;5193;51.032;6.356;2023-07-13T15:51:03;3.93;;;1.43;;
10295;SDS011;5193;51.032;6.356;2023-07-13T15:53:34;3.10;;;1.30;;
10295;SDS011;5193;51.032;6.356;2023-07-13T15:56:10;3.03;;;1.20;;
10295;SDS011;5193;51.032;6.356;2023-07-13T15:58:42;3.03;;;1.20;;
10295;SDS011;5193;51.032;6.356;2023-07-13T16:01:09;4.83;;;1.40;;
10295;SDS011;5193;51.032;6.356;2023-07-13T16:03:36;2.27;;;1.23;;
10295;SDS011;5193;51.032;6.356;2023-07-13T16:06:01;1.57;;;1.17;;
10295;SDS011;5193;51.032;6.356;2023-07-13T16:08:29;1.80;;;1.20;;